sensor_id;sensor_type;location;lat;lon;timestamp;pressure;altitude;pressure_sealevel;temperature;humidity
15670;BME280;18524;45.190;5.732;2023-03-22T00:04:08;99184.75;;;13.48;83.27
15670;BME280;18524;45.190;5.732;2023-03-22T00:08:59;99180.75;;;13.43;82.70
15670;BME280;18524;45.190;5.732;2023-03-22T00:13:50;99179.63;;;13.36;83.62
15670;BME280;18524;45.190;5.732;2023-03-22T00:18:41;99177.28;;;13.33;83.85
15670;BME280;18524;45.190;5.732;2023-03-22T00:23:32;99174.66;;;13.24;84.12
15670;BME280;18524;45.190;5.732;2023-03-22T00:28:23;99171.59;;;13.19;84.84
15670;BME280;18524;45.190;5.732;2023-03-22T00:33:13;99166.75;;;13.04;82.60
15670;BME280;18524;45.190;5.732;2023-03-22T00:38:04;99162.03;;;13.08;85.87
15670;BME280;18524;45.190;5.732;2023-03-22T00:42:55;99155.25;;;13.05;86.31
15670;BME280;18524;45.190;5.732;2023-03-22T00:47:45;99159.78;;;12.94;86.52
15670;BME280;18524;45.190;5.732;2023-03-22T00:52:35;99157.16;;;12.94;85.70
15670;BME280;18524;45.190;5.732;2023-03-22T00:57:26;99151.63;;;12.87;87.47
15670;BME280;18524;45.190;5.732;2023-03-22T01:02:16;99141.22;;;12.86;87.37
15670;BME280;18524;45.190;5.732;2023-03-22T01:07:07;99137.22;;;12.81;86.91
15670;BME280;18524;45.190;5.732;2023-03-22T01:11:57;99137.75;;;12.75;86.66
15670;BME280;18524;45.190;5.732;2023-03-22T01:16:47;99133.34;;;12.66;88.13
15670;BME280;18524;45.190;5.732;2023-03-22T01:21:38;99139.13;;;12.60;91.11
15670;BME280;18524;45.190;5.732;2023-03-22T01:26:28;99140.06;;;12.49;90.11
15670;BME280;18524;45.190;5.732;2023-03-22T01:31:19;99141.56;;;12.33;91.93
15670;BME280;18524;45.190;5.732;2023-03-22T01:36:09;99135.88;;;12.28;90.06
15670;BME280;18524;45.190;5.732;2023-03-22T01:41:00;99137.63;;;12.17;92.28
15670;BME280;18524;45.190;5.732;2023-03-22T01:45:52;99138.00;;;12.03;94.90
15670;BME280;18524;45.190;5.732;2023-03-22T01:50:49;99138.19;;;12.11;95.23
15670;BME280;18524;45.190;5.732;2023-03-22T01:55:45;99137.59;;;12.08;96.23
15670;BME280;18524;45.190;5.732;2023-03-22T02:00:36;99125.69;;;12.04;95.34
15670;BME280;18524;45.190;5.732;2023-03-22T02:05:27;99127.38;;;12.05;94.63
15670;BME280;18524;45.190;5.732;2023-03-22T02:10:21;99126.63;;;11.93;94.40
15670;BME280;18524;45.190;5.732;2023-03-22T02:36:03;99129.53;;;11.69;96.68
15670;BME280;18524;45.190;5.732;2023-03-22T02:46:16;99129.94;;;11.65;98.05
15670;BME280;18524;45.190;5.732;2023-03-22T02:51:18;99129.13;;;11.74;97.47
15670;BME280;18524;45.190;5.732;2023-03-22T02:56:13;99130.94;;;11.73;97.38
15670;BME280;18524;45.190;5.732;2023-03-22T03:01:08;99128.25;;;11.64;93.94
15670;BME280;18524;45.190;5.732;2023-03-22T03:06:04;99125.19;;;11.58;93.70
15670;BME280;18524;45.190;5.732;2023-03-22T03:10:57;99132.50;;;11.55;92.71
15670;BME280;18524;45.190;5.732;2023-03-22T03:15:51;99136.47;;;11.49;96.72
15670;BME280;18524;45.190;5.732;2023-03-22T03:36:12;99129.06;;;11.34;97.81
15670;BME280;18524;45.190;5.732;2023-03-22T03:41:09;99133.09;;;11.38;96.13
15670;BME280;18524;45.190;5.732;2023-03-22T03:46:01;99129.56;;;11.27;95.75
15670;BME280;18524;45.190;5.732;2023-03-22T03:50:53;99130.22;;;11.20;98.29
15670;BME280;18524;45.190;5.732;2023-03-22T03:55:45;99126.09;;;11.06;100.00
15670;BME280;18524;45.190;5.732;2023-03-22T04:00:36;99127.38;;;11.12;100.00
15670;BME280;18524;45.190;5.732;2023-03-22T04:05:27;99126.41;;;11.13;100.00
15670;BME280;18524;45.190;5.732;2023-03-22T04:10:18;99126.66;;;11.10;100.00
15670;BME280;18524;45.190;5.732;2023-03-22T04:15:08;99131.78;;;11.11;100.00
15670;BME280;18524;45.190;5.732;2023-03-22T04:20:01;99135.19;;;11.02;100.00
15670;BME280;18524;45.190;5.732;2023-03-22T04:24:53;99126.59;;;11.00;100.00
15670;BME280;18524;45.190;5.732;2023-03-22T04:29:45;99125.66;;;11.01;100.00
15670;BME280;18524;45.190;5.732;2023-03-22T04:34:40;99134.47;;;11.00;100.00
15670;BME280;18524;45.190;5.732;2023-03-22T04:39:30;99125.66;;;11.01;100.00
15670;BME280;18524;45.190;5.732;2023-03-22T04:44:20;99129.66;;;10.84;98.86
15670;BME280;18524;45.190;5.732;2023-03-22T04:49:11;99127.00;;;10.95;98.60
15670;BME280;18524;45.190;5.732;2023-03-22T04:54:02;99126.09;;;11.06;94.94
15670;BME280;18524;45.190;5.732;2023-03-22T04:58:52;99127.38;;;10.91;92.84
15670;BME280;18524;45.190;5.732;2023-03-22T05:03:43;99133.63;;;10.79;95.90
15670;BME280;18524;45.190;5.732;2023-03-22T05:08:34;99138.13;;;10.45;98.06
15670;BME280;18524;45.190;5.732;2023-03-22T05:13:26;99141.09;;;10.40;99.27
15670;BME280;18524;45.190;5.732;2023-03-22T05:18:18;99138.59;;;10.39;100.00
15670;BME280;18524;45.190;5.732;2023-03-22T05:23:16;99142.19;;;10.38;100.00
15670;BME280;18524;45.190;5.732;2023-03-22T05:28:08;99149.00;;;10.29;100.00
15670;BME280;18524;45.190;5.732;2023-03-22T05:33:01;99149.09;;;10.16;100.00
15670;BME280;18524;45.190;5.732;2023-03-22T05:37:52;99150.66;;;10.08;100.00
15670;BME280;18524;45.190;5.732;2023-03-22T05:42:43;99154.47;;;10.03;100.00
15670;BME280;18524;45.190;5.732;2023-03-22T05:47:34;99152.09;;;10.12;100.00
15670;BME280;18524;45.190;5.732;2023-03-22T05:52:25;99142.44;;;10.01;100.00
15670;BME280;18524;45.190;5.732;2023-03-22T05:57:16;99136.72;;;9.85;100.00
15670;BME280;18524;45.190;5.732;2023-03-22T06:02:06;99142.09;;;9.72;100.00
15670;BME280;18524;45.190;5.732;2023-03-22T06:06:57;99145.16;;;9.66;100.00
15670;BME280;18524;45.190;5.732;2023-03-22T06:11:47;99153.75;;;9.68;100.00
15670;BME280;18524;45.190;5.732;2023-03-22T06:16:37;99157.91;;;9.70;100.00
15670;BME280;18524;45.190;5.732;2023-03-22T06:21:28;99150.53;;;9.76;100.00
15670;BME280;18524;45.190;5.732;2023-03-22T06:26:18;99157.31;;;9.67;100.00
15670;BME280;18524;45.190;5.732;2023-03-22T06:31:09;99165.06;;;10.02;100.00
15670;BME280;18524;45.190;5.732;2023-03-22T06:35:59;99163.88;;;10.17;100.00
15670;BME280;18524;45.190;5.732;2023-03-22T06:40:51;99156.47;;;10.33;99.15
15670;BME280;18524;45.190;5.732;2023-03-22T06:45:41;99157.75;;;10.61;97.95
15670;BME280;18524;45.190;5.732;2023-03-22T06:50:31;99149.56;;;11.19;95.88
15670;BME280;18524;45.190;5.732;2023-03-22T06:55:23;99154.13;;;11.68;94.86
15670;BME280;18524;45.190;5.732;2023-03-22T07:00:14;99156.47;;;12.23;89.37
15670;BME280;18524;45.190;5.732;2023-03-22T07:05:04;99149.13;;;12.66;85.51
15670;BME280;18524;45.190;5.732;2023-03-22T07:09:56;99145.53;;;12.87;84.90
15670;BME280;18524;45.190;5.732;2023-03-22T07:14:47;99137.22;;;13.30;81.44
15670;BME280;18524;45.190;5.732;2023-03-22T07:19:38;99144.41;;;13.47;79.19
15670;BME280;18524;45.190;5.732;2023-03-22T07:24:30;99141.81;;;13.74;78.59
15670;BME280;18524;45.190;5.732;2023-03-22T07:29:20;99144.50;;;13.65;77.90
15670;BME280;18524;45.190;5.732;2023-03-22T07:34:10;99138.81;;;14.34;75.44
15670;BME280;18524;45.190;5.732;2023-03-22T07:39:01;99136.56;;;14.66;73.98
15670;BME280;18524;45.190;5.732;2023-03-22T07:43:51;99140.19;;;15.01;70.71
15670;BME280;18524;45.190;5.732;2023-03-22T07:48:42;99137.13;;;15.31;69.22
15670;BME280;18524;45.190;5.732;2023-03-22T07:53:32;99143.41;;;15.56;68.80
15670;BME280;18524;45.190;5.732;2023-03-22T07:58:23;99148.84;;;15.99;66.88
15670;BME280;18524;45.190;5.732;2023-03-22T08:03:13;99150.56;;;16.16;65.33
15670;BME280;18524;45.190;5.732;2023-03-22T08:08:04;99146.53;;;16.38;63.58
15670;BME280;18524;45.190;5.732;2023-03-22T08:12:55;99156.81;;;16.07;63.13
15670;BME280;18524;45.190;5.732;2023-03-22T08:17:45;99153.41;;;16.22;63.00
15670;BME280;18524;45.190;5.732;2023-03-22T08:22:38;99162.44;;;16.12;62.86
15670;BME280;18524;45.190;5.732;2023-03-22T08:27:29;99163.22;;;16.80;61.15
15670;BME280;18524;45.190;5.732;2023-03-22T08:32:20;99154.47;;;17.12;59.46
15670;BME280;18524;45.190;5.732;2023-03-22T08:37:11;99152.28;;;16.75;59.48
15670;BME280;18524;45.190;5.732;2023-03-22T08:42:02;99134.56;;;17.08;57.92
15670;BME280;18524;45.190;5.732;2023-03-22T08:46:53;99127.31;;;17.18;58.10
15670;BME280;18524;45.190;5.732;2023-03-22T08:51:44;99122.16;;;17.09;57.86
15670;BME280;18524;45.190;5.732;2023-03-22T08:56:34;99116.38;;;17.30;56.66
15670;BME280;18524;45.190;5.732;2023-03-22T09:01:27;99112.50;;;17.73;56.40
15670;BME280;18524;45.190;5.732;2023-03-22T09:06:17;99110.03;;;17.71;55.22
15670;BME280;18524;45.190;5.732;2023-03-22T09:11:09;99104.44;;;18.05;55.58
15670;BME280;18524;45.190;5.732;2023-03-22T09:15:59;99109.28;;;18.02;55.48
15670;BME280;18524;45.190;5.732;2023-03-22T09:20:50;99104.69;;;17.79;55.47
15670;BME280;18524;45.190;5.732;2023-03-22T09:25:42;99097.84;;;18.32;54.73
15670;BME280;18524;45.190;5.732;2023-03-22T09:30:33;99087.38;;;18.70;53.32
15670;BME280;18524;45.190;5.732;2023-03-22T09:35:23;99081.75;;;18.65;52.25
15670;BME280;18524;45.190;5.732;2023-03-22T09:40:14;99081.53;;;19.35;51.12
15670;BME280;18524;45.190;5.732;2023-03-22T09:45:10;99079.13;;;19.40;49.63
15670;BME280;18524;45.190;5.732;2023-03-22T09:50:14;99065.78;;;20.07;49.15
15670;BME280;18524;45.190;5.732;2023-03-22T09:55:16;99063.03;;;19.86;48.12
15670;BME280;18524;45.190;5.732;2023-03-22T10:00:13;99059.06;;;20.11;47.37
15670;BME280;18524;45.190;5.732;2023-03-22T10:10:26;99049.69;;;20.73;45.58
15670;BME280;18524;45.190;5.732;2023-03-22T10:15:31;99042.19;;;21.04;45.63
15670;BME280;18524;45.190;5.732;2023-03-22T10:20:41;99028.72;;;21.40;44.26
15670;BME280;18524;45.190;5.732;2023-03-22T10:25:36;99020.19;;;21.99;43.41
15670;BME280;18524;45.190;5.732;2023-03-22T10:30:33;99020.66;;;22.09;40.55
15670;BME280;18524;45.190;5.732;2023-03-22T10:35:25;99008.63;;;22.33;40.00
15670;BME280;18524;45.190;5.732;2023-03-22T10:40:19;99003.50;;;22.65;39.90
15670;BME280;18524;45.190;5.732;2023-03-22T10:45:14;98999.25;;;23.10;40.13
15670;BME280;18524;45.190;5.732;2023-03-22T10:50:14;98997.38;;;23.11;37.67
15670;BME280;18524;45.190;5.732;2023-03-22T10:55:10;98983.06;;;23.63;36.74
15670;BME280;18524;45.190;5.732;2023-03-22T11:00:03;98980.78;;;23.66;35.05
15670;BME280;18524;45.190;5.732;2023-03-22T11:05:01;98968.06;;;24.00;34.40
15670;BME280;18524;45.190;5.732;2023-03-22T11:14:58;98950.38;;;24.62;33.34
15670;BME280;18524;45.190;5.732;2023-03-22T11:19:57;98936.34;;;24.85;32.10
15670;BME280;18524;45.190;5.732;2023-03-22T11:24:49;98933.66;;;25.10;33.02
15670;BME280;18524;45.190;5.732;2023-03-22T11:29:46;98918.66;;;25.57;32.53
15670;BME280;18524;45.190;5.732;2023-03-22T11:34:37;98911.34;;;25.82;30.74
15670;BME280;18524;45.190;5.732;2023-03-22T11:39:28;98908.59;;;26.01;29.73
15670;BME280;18524;45.190;5.732;2023-03-22T11:44:20;98910.06;;;26.15;30.30
15670;BME280;18524;45.190;5.732;2023-03-22T11:49:13;98899.41;;;26.50;29.93
15670;BME280;18524;45.190;5.732;2023-03-22T11:54:24;98892.13;;;26.74;30.51
15670;BME280;18524;45.190;5.732;2023-03-22T11:59:23;98883.25;;;27.08;29.99
15670;BME280;18524;45.190;5.732;2023-03-22T12:04:19;98889.78;;;27.13;28.98
15670;BME280;18524;45.190;5.732;2023-03-22T12:09:21;98877.41;;;27.12;29.38
15670;BME280;18524;45.190;5.732;2023-03-22T12:14:21;98868.97;;;26.96;28.23
15670;BME280;18524;45.190;5.732;2023-03-22T12:19:35;98855.75;;;27.06;30.21
15670;BME280;18524;45.190;5.732;2023-03-22T12:24:30;98848.00;;;27.10;29.30
15670;BME280;18524;45.190;5.732;2023-03-22T12:29:21;98836.66;;;26.96;30.00
15670;BME280;18524;45.190;5.732;2023-03-22T12:34:17;98826.72;;;27.08;29.12
15670;BME280;18524;45.190;5.732;2023-03-22T12:39:16;98821.00;;;27.05;30.88
15670;BME280;18524;45.190;5.732;2023-03-22T12:44:17;98810.13;;;26.88;29.99
15670;BME280;18524;45.190;5.732;2023-03-22T12:54:46;98800.94;;;26.49;28.46
15670;BME280;18524;45.190;5.732;2023-03-22T12:59:42;98784.06;;;26.18;27.72
15670;BME280;18524;45.190;5.732;2023-03-22T13:19:37;98763.47;;;24.81;28.08
15670;BME280;18524;45.190;5.732;2023-03-22T13:24:29;98754.75;;;24.49;28.21
15670;BME280;18524;45.190;5.732;2023-03-22T13:29:23;98743.63;;;24.27;28.37
15670;BME280;18524;45.190;5.732;2023-03-22T13:34:43;98738.31;;;24.20;27.06
15670;BME280;18524;45.190;5.732;2023-03-22T13:39:32;98727.41;;;23.97;27.96
15670;BME280;18524;45.190;5.732;2023-03-22T13:44:28;98716.81;;;23.84;27.16
15670;BME280;18524;45.190;5.732;2023-03-22T13:49:48;98716.19;;;23.57;27.58
15670;BME280;18524;45.190;5.732;2023-03-22T13:54:43;98708.38;;;23.55;28.50
15670;BME280;18524;45.190;5.732;2023-03-22T14:00:02;98699.59;;;23.42;27.53
15670;BME280;18524;45.190;5.732;2023-03-22T14:05:02;98696.22;;;23.21;28.13
15670;BME280;18524;45.190;5.732;2023-03-22T14:10:05;98697.75;;;23.11;27.63
15670;BME280;18524;45.190;5.732;2023-03-22T14:15:03;98691.19;;;23.00;29.04
15670;BME280;18524;45.190;5.732;2023-03-22T14:19:55;98689.59;;;22.92;28.83
15670;BME280;18524;45.190;5.732;2023-03-22T14:24:48;98687.09;;;22.97;28.76
15670;BME280;18524;45.190;5.732;2023-03-22T14:29:46;98680.31;;;22.95;28.79
15670;BME280;18524;45.190;5.732;2023-03-22T14:34:38;98678.94;;;22.86;28.69
15670;BME280;18524;45.190;5.732;2023-03-22T14:39:32;98665.41;;;22.81;29.23
15670;BME280;18524;45.190;5.732;2023-03-22T14:44:23;98662.09;;;22.78;28.71
15670;BME280;18524;45.190;5.732;2023-03-22T14:49:16;98664.19;;;22.70;29.02
15670;BME280;18524;45.190;5.732;2023-03-22T14:54:09;98652.84;;;22.74;28.96
15670;BME280;18524;45.190;5.732;2023-03-22T14:59:06;98655.13;;;22.71;28.82
15670;BME280;18524;45.190;5.732;2023-03-22T15:04:00;98653.91;;;22.67;29.17
15670;BME280;18524;45.190;5.732;2023-03-22T15:08:51;98640.56;;;22.60;29.52
15670;BME280;18524;45.190;5.732;2023-03-22T15:13:43;98634.47;;;22.46;30.10
15670;BME280;18524;45.190;5.732;2023-03-22T15:18:36;98635.47;;;22.52;30.39
15670;BME280;18524;45.190;5.732;2023-03-22T15:23:36;98625.03;;;22.44;30.78
15670;BME280;18524;45.190;5.732;2023-03-22T15:28:29;98617.00;;;22.44;30.40
15670;BME280;18524;45.190;5.732;2023-03-22T15:33:26;98617.25;;;22.29;31.06
15670;BME280;18524;45.190;5.732;2023-03-22T15:38:32;98614.19;;;22.26;31.56
15670;BME280;18524;45.190;5.732;2023-03-22T15:43:36;98611.09;;;22.29;30.55
15670;BME280;18524;45.190;5.732;2023-03-22T15:48:27;98609.72;;;22.20;31.65
15670;BME280;18524;45.190;5.732;2023-03-22T15:53:29;98617.97;;;22.11;31.92
15670;BME280;18524;45.190;5.732;2023-03-22T15:58:30;98621.25;;;22.00;31.74
15670;BME280;18524;45.190;5.732;2023-03-22T16:03:21;98616.53;;;21.96;31.82
15670;BME280;18524;45.190;5.732;2023-03-22T16:08:13;98611.81;;;21.91;32.67
15670;BME280;18524;45.190;5.732;2023-03-22T16:13:14;98616.94;;;21.86;33.17
15670;BME280;18524;45.190;5.732;2023-03-22T16:18:09;98622.13;;;21.74;33.88
15670;BME280;18524;45.190;5.732;2023-03-22T16:23:06;98627.69;;;21.66;34.01
15670;BME280;18524;45.190;5.732;2023-03-22T16:27:59;98628.09;;;21.57;34.67
15670;BME280;18524;45.190;5.732;2023-03-22T16:32:49;98633.00;;;21.53;35.19
15670;BME280;18524;45.190;5.732;2023-03-22T16:37:40;98630.75;;;21.43;35.74
15670;BME280;18524;45.190;5.732;2023-03-22T16:42:32;98644.53;;;21.40;35.95
15670;BME280;18524;45.190;5.732;2023-03-22T16:47:24;98642.66;;;21.34;36.22
15670;BME280;18524;45.190;5.732;2023-03-22T16:52:18;98646.09;;;21.15;37.00
15670;BME280;18524;45.190;5.732;2023-03-22T16:57:15;98646.72;;;21.04;37.19
15670;BME280;18524;45.190;5.732;2023-03-22T17:02:15;98656.13;;;21.00;37.04
15670;BME280;18524;45.190;5.732;2023-03-22T17:07:11;98661.06;;;21.03;37.32
15670;BME280;18524;45.190;5.732;2023-03-22T17:12:02;98673.53;;;20.82;37.63
15670;BME280;18524;45.190;5.732;2023-03-22T17:16:53;98679.44;;;20.78;37.60
15670;BME280;18524;45.190;5.732;2023-03-22T17:21:43;98695.19;;;20.66;38.37
15670;BME280;18524;45.190;5.732;2023-03-22T17:26:34;98694.16;;;20.60;38.56
15670;BME280;18524;45.190;5.732;2023-03-22T17:31:24;98696.50;;;20.42;38.73
15670;BME280;18524;45.190;5.732;2023-03-22T17:36:15;98700.75;;;20.37;38.80
15670;BME280;18524;45.190;5.732;2023-03-22T17:41:05;98718.53;;;20.29;39.84
15670;BME280;18524;45.190;5.732;2023-03-22T17:45:56;98716.91;;;20.28;39.62
15670;BME280;18524;45.190;5.732;2023-03-22T17:50:46;98730.38;;;20.20;40.01
15670;BME280;18524;45.190;5.732;2023-03-22T17:55:38;98731.94;;;20.08;40.28
15670;BME280;18524;45.190;5.732;2023-03-22T18:00:29;98731.69;;;20.03;40.64
15670;BME280;18524;45.190;5.732;2023-03-22T18:05:22;98739.38;;;19.91;41.69
15670;BME280;18524;45.190;5.732;2023-03-22T18:10:14;98747.28;;;19.78;42.46
15670;BME280;18524;45.190;5.732;2023-03-22T18:15:05;98751.72;;;19.71;41.87
15670;BME280;18524;45.190;5.732;2023-03-22T18:19:57;98757.78;;;19.65;42.35
15670;BME280;18524;45.190;5.732;2023-03-22T18:24:48;98759.13;;;19.54;42.80
15670;BME280;18524;45.190;5.732;2023-03-22T18:29:38;98756.47;;;19.54;42.87
15670;BME280;18524;45.190;5.732;2023-03-22T18:34:28;98762.25;;;19.43;43.34
15670;BME280;18524;45.190;5.732;2023-03-22T18:39:19;98772.03;;;19.36;43.60
15670;BME280;18524;45.190;5.732;2023-03-22T18:44:09;98772.09;;;19.28;45.07
15670;BME280;18524;45.190;5.732;2023-03-22T18:48:59;98777.56;;;19.20;45.88
15670;BME280;18524;45.190;5.732;2023-03-22T18:53:50;98775.66;;;19.14;45.83
15670;BME280;18524;45.190;5.732;2023-03-22T18:58:40;98776.31;;;19.01;46.35
15670;BME280;18524;45.190;5.732;2023-03-22T19:03:31;98780.91;;;18.92;48.58
15670;BME280;18524;45.190;5.732;2023-03-22T19:08:24;98774.03;;;18.83;49.38
15670;BME280;18524;45.190;5.732;2023-03-22T19:13:14;98777.06;;;18.80;50.04
15670;BME280;18524;45.190;5.732;2023-03-22T19:18:05;98789.91;;;18.77;52.29
15670;BME280;18524;45.190;5.732;2023-03-22T19:22:55;98803.38;;;18.75;47.67
15670;BME280;18524;45.190;5.732;2023-03-22T19:27:45;98806.19;;;18.59;49.42
15670;BME280;18524;45.190;5.732;2023-03-22T19:32:36;98805.63;;;18.49;49.40
15670;BME280;18524;45.190;5.732;2023-03-22T19:37:26;98819.00;;;18.40;49.85
15670;BME280;18524;45.190;5.732;2023-03-22T19:42:17;98820.00;;;18.39;50.79
15670;BME280;18524;45.190;5.732;2023-03-22T19:47:08;98812.13;;;18.31;50.77
15670;BME280;18524;45.190;5.732;2023-03-22T19:51:58;98820.81;;;18.25;52.15
15670;BME280;18524;45.190;5.732;2023-03-22T19:56:49;98827.50;;;18.21;51.09
15670;BME280;18524;45.190;5.732;2023-03-22T20:01:40;98824.53;;;18.16;52.90
15670;BME280;18524;45.190;5.732;2023-03-22T20:06:30;98835.84;;;18.10;53.56
15670;BME280;18524;45.190;5.732;2023-03-22T20:11:22;98840.88;;;18.05;54.74
15670;BME280;18524;45.190;5.732;2023-03-22T20:16:13;98848.91;;;17.97;55.17
15670;BME280;18524;45.190;5.732;2023-03-22T20:21:04;98848.44;;;17.93;53.69
15670;BME280;18524;45.190;5.732;2023-03-22T20:25:57;98850.00;;;17.88;54.14
15670;BME280;18524;45.190;5.732;2023-03-22T20:30:49;98853.00;;;17.85;55.60
15670;BME280;18524;45.190;5.732;2023-03-22T20:35:41;98854.50;;;17.79;54.76
15670;BME280;18524;45.190;5.732;2023-03-22T20:40:31;98854.69;;;17.77;54.11
15670;BME280;18524;45.190;5.732;2023-03-22T20:45:22;98859.50;;;17.74;53.46
15670;BME280;18524;45.190;5.732;2023-03-22T20:50:12;98863.88;;;17.67;53.94
15670;BME280;18524;45.190;5.732;2023-03-22T20:55:03;98866.00;;;17.71;52.95
15670;BME280;18524;45.190;5.732;2023-03-22T20:59:54;98872.34;;;17.62;52.86
15670;BME280;18524;45.190;5.732;2023-03-22T21:04:45;98873.56;;;17.52;53.77
15670;BME280;18524;45.190;5.732;2023-03-22T21:09:35;98883.19;;;17.44;57.61
15670;BME280;18524;45.190;5.732;2023-03-22T21:14:26;98884.34;;;17.42;55.49
15670;BME280;18524;45.190;5.732;2023-03-22T21:19:17;98898.66;;;17.33;58.74
15670;BME280;18524;45.190;5.732;2023-03-22T21:24:07;98888.41;;;17.30;59.85
15670;BME280;18524;45.190;5.732;2023-03-22T21:28:58;98903.00;;;17.26;59.88
15670;BME280;18524;45.190;5.732;2023-03-22T21:33:49;98893.91;;;17.20;60.64
15670;BME280;18524;45.190;5.732;2023-03-22T21:38:39;98905.03;;;17.15;61.29
15670;BME280;18524;45.190;5.732;2023-03-22T21:43:34;98902.72;;;17.12;62.59
15670;BME280;18524;45.190;5.732;2023-03-22T21:48:26;98912.69;;;17.10;63.42
15670;BME280;18524;45.190;5.732;2023-03-22T21:53:19;98909.69;;;17.13;64.71
15670;BME280;18524;45.190;5.732;2023-03-22T21:58:09;98914.16;;;17.05;65.05
15670;BME280;18524;45.190;5.732;2023-03-22T22:03:00;98913.66;;;17.01;66.28
15670;BME280;18524;45.190;5.732;2023-03-22T22:07:52;98912.38;;;16.97;66.26
15670;BME280;18524;45.190;5.732;2023-03-22T22:12:42;98916.69;;;16.90;65.93
15670;BME280;18524;45.190;5.732;2023-03-22T22:17:33;98920.81;;;16.93;66.48
15670;BME280;18524;45.190;5.732;2023-03-22T22:22:23;98924.81;;;16.88;67.07
15670;BME280;18524;45.190;5.732;2023-03-22T22:27:13;98936.91;;;16.83;68.09
15670;BME280;18524;45.190;5.732;2023-03-22T22:32:04;98935.44;;;16.80;68.27
15670;BME280;18524;45.190;5.732;2023-03-22T22:36:57;98933.44;;;16.82;68.63
15670;BME280;18524;45.190;5.732;2023-03-22T22:41:47;98935.41;;;16.72;69.70
15670;BME280;18524;45.190;5.732;2023-03-22T22:46:37;98931.63;;;16.67;70.04
15670;BME280;18524;45.190;5.732;2023-03-22T22:51:28;98935.06;;;16.59;70.45
15670;BME280;18524;45.190;5.732;2023-03-22T22:56:19;98932.09;;;16.54;69.68
15670;BME280;18524;45.190;5.732;2023-03-22T23:01:11;98934.59;;;16.55;70.68
15670;BME280;18524;45.190;5.732;2023-03-22T23:06:14;98935.59;;;16.46;69.94
15670;BME280;18524;45.190;5.732;2023-03-22T23:11:05;98941.56;;;16.40;70.69
15670;BME280;18524;45.190;5.732;2023-03-22T23:15:56;98940.91;;;16.38;70.18
15670;BME280;18524;45.190;5.732;2023-03-22T23:20:48;98938.53;;;16.35;69.68
15670;BME280;18524;45.190;5.732;2023-03-22T23:25:39;98934.09;;;16.27;71.52
15670;BME280;18524;45.190;5.732;2023-03-22T23:30:30;98935.25;;;16.33;70.72
15670;BME280;18524;45.190;5.732;2023-03-22T23:35:21;98937.22;;;16.31;68.56
15670;BME280;18524;45.190;5.732;2023-03-22T23:40:11;98936.25;;;16.24;67.98
15670;BME280;18524;45.190;5.732;2023-03-22T23:45:02;98936.41;;;16.22;70.06
15670;BME280;18524;45.190;5.732;2023-03-22T23:49:53;98940.38;;;16.26;70.40
15670;BME280;18524;45.190;5.732;2023-03-22T23:54:43;98946.66;;;16.25;68.59
15670;BME280;18524;45.190;5.732;2023-03-22T23:59:34;98937.72;;;16.26;68.11
